2005 GAMMA (2005318N13298)


On this page: IBTrACS data - Map and Plots - Positions - Intensities - Original source data

Summary

Start Nov 14
End Nov 22
Basin NA
LMI 45 kt
Sources hurdat_atl
atcf
In WMO? Yes
Previous storm 2005 BOLAVEN (WP)
Previous in basin 2005 BETA (NA)
Concurrent storms 2005 BOLAVEN (WP)
2005 GAMMA (NA)
2006 ALVIN (SI)
2005 MISSING (NI)
2005 DELTA (NA)
Next in basin 2005 DELTA (NA)
Next storm 2006 ALVIN (SI)

top of page IBTrACS Data: File Access

top of page HURSAT Data: File Access

Image of storm

top of page Plots:

Map of storm track will not appear if FTP is down
Time series of cyclone Maximum Sustained Wind will not appear if FTP is down
Time series of cyclone Minimum Central Pressure will not appear if FTP is down

top of page Track Data:Position

hurdat_atl atcf
Date Lat Lon Lat Lon
2005-11-14 00:00:00 13.2 -62.1 13.2 -62.1
2005-11-14 06:00:00 13.6 -62.8 13.6 -62.8
2005-11-14 12:00:00 13.8 -63.4 13.8 -63.4
2005-11-14 18:00:00 14.1 -64.2 14.1 -64.2
2005-11-15 00:00:00 14.2 -65.0 14.2 -65.0
2005-11-15 06:00:00 14.3 -66.0 14.3 -66.0
2005-11-15 12:00:00 14.4 -67.1 14.4 -67.1
2005-11-15 18:00:00 14.7 -68.4 14.7 -68.4
2005-11-16 00:00:00 14.8 -69.9 14.8 -69.9
2005-11-16 06:00:00 14.8 -71.5 14.8 -71.5
2005-11-16 12:00:00 14.7 -73.1 14.7 -73.1
2005-11-16 18:00:00 14.8 -75.4 14.8 -75.4
2005-11-17 00:00:00 15.0 -77.6 15.0 -77.6
2005-11-17 06:00:00 15.3 -79.7 15.3 -79.7
2005-11-17 12:00:00 15.6 -81.7 15.6 -81.7
2005-11-17 18:00:00 15.8 -83.1 15.8 -83.1
2005-11-18 00:00:00 15.8 -84.1 15.8 -84.1
2005-11-18 06:00:00 15.7 -84.8 15.7 -84.8
2005-11-18 12:00:00 15.5 -85.5 15.5 -85.5
2005-11-18 18:00:00 15.7 -85.6 15.7 -85.6
2005-11-19 00:00:00 16.0 -85.6 16.0 -85.6
2005-11-19 06:00:00 16.1 -85.6 16.1 -85.6
2005-11-19 12:00:00 16.1 -85.4 16.1 -85.4
2005-11-19 18:00:00 16.2 -85.2 16.2 -85.2
2005-11-20 00:00:00 16.4 -85.0 16.4 -85.0
hurdat_atl atcf
2005-11-20 06:00:00 16.6 -85.0 16.6 -85.0
2005-11-20 12:00:00 16.7 -85.2 16.7 -85.2
2005-11-20 18:00:00 16.9 -85.5 16.9 -85.5
2005-11-21 00:00:00 17.1 -85.5 17.1 -85.5
2005-11-21 06:00:00 17.0 -85.2 17.0 -85.2
2005-11-21 12:00:00 16.7 -84.8 16.7 -84.8
2005-11-21 18:00:00 16.4 -84.3 16.4 -84.3
2005-11-22 00:00:00 15.4 -83.5 15.4 -83.5

top of pageTrack Data:Intensity

hurdat_atl atcf
Date Wind Pres Wind Pres
2005-11-14 00:00:00 30. 1007. 30. 1007.
2005-11-14 06:00:00 30. 1006. 30. 1006.
2005-11-14 12:00:00 30. 1006. 30. 1006.
2005-11-14 18:00:00 30. 1005. 30. 1005.
2005-11-15 00:00:00 30. 1004. 30. 1004.
2005-11-15 06:00:00 35. 1004. 35. 1004.
2005-11-15 12:00:00 35. 1004. 35. 1004.
2005-11-15 18:00:00 30. 1005. 30. 1005.
2005-11-16 00:00:00 30. 1006. 30. 1006.
2005-11-16 06:00:00 30. 1006. 30. 1006.
2005-11-16 12:00:00 25. 1006. 25. 1006.
2005-11-16 18:00:00 25. 1006. 25. 1006.
2005-11-17 00:00:00 25. 1007. 25. 1007.
2005-11-17 06:00:00 25. 1008. 25. 1008.
2005-11-17 12:00:00 30. 1007. 30. 1007.
2005-11-17 18:00:00 30. 1007. 30. 1007.
2005-11-18 00:00:00 30. 1007. 30. 1007.
2005-11-18 06:00:00 30. 1006. 30. 1006.
2005-11-18 12:00:00 30. 1006. 30. 1006.
2005-11-18 18:00:00 35. 1006. 35. 1006.
2005-11-19 00:00:00 40. 1005. 40. 1005.
2005-11-19 06:00:00 40. 1004. 40. 1004.
2005-11-19 12:00:00 45. 1002. 45. 1002.
2005-11-19 18:00:00 40. 1004. 40. 1004.
2005-11-20 00:00:00 40. 1005. 40. 1005.
hurdat_atl atcf
2005-11-20 06:00:00 35. 1006. 35. 1006.
2005-11-20 12:00:00 30. 1007. 30. 1007.
2005-11-20 18:00:00 30. 1007. 30. 1007.
2005-11-21 00:00:00 25. 1008. 25. 1008.
2005-11-21 06:00:00 25. 1008. 25. 1008.
2005-11-21 12:00:00 25. 1008. 25. 1008.
2005-11-21 18:00:00 25. 1009. 25. 1009.
2005-11-22 00:00:00 25. 1009. 25. 1009.

top of page Links to source data

Source Source file Format
hurdat_atl tracks1851to2011.txt:1374:GAMMA HURDAT
atcf bal282005.dat ATCF